createdAt,value
2017-10-20T00:00:13.557Z,9.20
2017-10-20T00:02:39.945Z,9.20
2017-10-20T00:05:06.353Z,9.20
2017-10-20T00:07:32.764Z,9.20
2017-10-20T00:09:59.906Z,9.30
2017-10-20T00:12:27.039Z,9.40
2017-10-20T00:14:53.455Z,9.30
2017-10-20T00:17:19.906Z,9.40
2017-10-20T00:19:46.334Z,9.30
2017-10-20T00:22:12.747Z,9.30
2017-10-20T00:24:39.166Z,9.30
2017-10-20T00:27:05.595Z,9.30
2017-10-20T00:29:31.993Z,9.10
2017-10-20T00:31:58.398Z,9.00
2017-10-20T00:34:24.823Z,8.90
2017-10-20T00:36:51.250Z,9.10
2017-10-20T00:39:17.673Z,9.10
2017-10-20T00:41:44.075Z,9.10
2017-10-20T00:44:10.519Z,9.10
2017-10-20T00:46:37.003Z,9.00
2017-10-20T00:49:03.405Z,9.00
2017-10-20T00:51:29.816Z,9.00
2017-10-20T00:53:56.244Z,9.00
2017-10-20T00:56:22.680Z,9.10
2017-10-20T00:58:49.119Z,9.10
2017-10-20T01:01:15.605Z,9.00
2017-10-20T01:03:42.799Z,9.00
2017-10-20T01:06:09.224Z,9.00
2017-10-20T01:08:35.640Z,9.00
2017-10-20T01:11:02.792Z,8.60
2017-10-20T01:13:29.921Z,8.40
2017-10-20T01:15:56.378Z,8.40
2017-10-20T01:18:23.625Z,8.30
2017-10-20T01:20:50.820Z,8.30
2017-10-20T01:23:17.277Z,8.30
2017-10-20T01:25:43.756Z,8.30
2017-10-20T01:28:10.203Z,8.30
2017-10-20T01:30:36.652Z,8.30
2017-10-20T01:33:03.116Z,8.20
2017-10-20T01:35:29.556Z,8.30
2017-10-20T01:37:57.518Z,8.40
2017-10-20T01:40:23.969Z,8.40
2017-10-20T01:42:51.152Z,8.40
2017-10-20T01:45:17.595Z,8.30
2017-10-20T01:47:44.054Z,8.30
2017-10-20T01:50:10.509Z,8.30
2017-10-20T01:52:38.425Z,8.30
2017-10-20T01:55:04.861Z,8.30
2017-10-20T01:57:31.306Z,8.30
2017-10-20T01:59:57.761Z,8.30
2017-10-20T02:02:24.307Z,8.30
2017-10-20T02:04:52.237Z,8.20
2017-10-20T02:07:18.643Z,8.20
2017-10-20T02:09:45.799Z,8.30
2017-10-20T02:12:12.249Z,8.20
2017-10-20T02:14:38.695Z,8.20
2017-10-20T02:17:05.122Z,8.30
2017-10-20T02:19:31.523Z,8.30
2017-10-20T02:21:58.002Z,8.30
2017-10-20T02:24:24.469Z,8.30
2017-10-20T02:26:50.907Z,8.30
2017-10-20T02:29:17.333Z,8.30
2017-10-20T02:31:43.769Z,8.30
2017-10-20T02:34:10.948Z,8.20
2017-10-20T02:36:37.422Z,8.20
2017-10-20T02:39:03.854Z,8.30
2017-10-20T02:41:30.320Z,8.30
2017-10-20T02:43:57.520Z,8.20
2017-10-20T02:46:23.974Z,8.20
2017-10-20T02:48:50.395Z,8.30
2017-10-20T02:51:16.833Z,8.30
2017-10-20T02:53:43.268Z,8.30
2017-10-20T02:56:09.838Z,8.30
2017-10-20T02:58:36.286Z,8.20
2017-10-20T03:01:03.460Z,8.30
2017-10-20T03:03:29.888Z,8.30
2017-10-20T03:05:56.312Z,8.30
2017-10-20T03:08:22.924Z,8.30
2017-10-20T03:10:49.343Z,8.30
2017-10-20T03:13:15.779Z,8.30
2017-10-20T03:15:42.218Z,8.30
2017-10-20T03:18:08.842Z,8.40
2017-10-20T03:20:35.235Z,8.50
2017-10-20T03:23:01.656Z,8.60
2017-10-20T03:25:28.109Z,8.70
2017-10-20T03:27:54.531Z,8.70
2017-10-20T03:30:20.929Z,8.90
2017-10-20T03:32:48.080Z,8.90
2017-10-20T03:35:15.244Z,8.90
2017-10-20T03:37:42.454Z,8.70
2017-10-20T03:40:10.367Z,8.50
2017-10-20T03:42:36.773Z,8.50
2017-10-20T03:45:03.951Z,8.20
2017-10-20T03:47:31.108Z,8.10
2017-10-20T03:49:57.504Z,8.10
2017-10-20T03:52:23.925Z,8.10
2017-10-20T03:54:50.312Z,8.00
2017-10-20T03:57:16.749Z,8.00
2017-10-20T03:59:43.162Z,8.10
2017-10-20T04:02:09.567Z,8.00
2017-10-20T04:04:37.494Z,8.10
2017-10-20T04:07:03.938Z,8.10
2017-10-20T04:09:30.401Z,8.20
2017-10-20T04:11:58.392Z,8.10
2017-10-20T04:14:24.858Z,8.10
2017-10-20T04:16:51.362Z,8.00
2017-10-20T04:19:17.837Z,8.00
2017-10-20T04:21:44.252Z,8.00
2017-10-20T04:24:10.674Z,8.00
2017-10-20T04:26:37.145Z,8.10
2017-10-20T04:29:03.606Z,8.10
2017-10-20T04:31:30.782Z,8.10
2017-10-20T04:33:57.217Z,8.10
2017-10-20T04:36:23.668Z,8.10
2017-10-20T04:38:50.120Z,8.10
2017-10-20T04:41:16.555Z,8.20
2017-10-20T04:43:43.006Z,8.20
2017-10-20T04:46:09.391Z,8.20
2017-10-20T04:48:35.820Z,8.20
2017-10-20T04:51:02.245Z,8.30
2017-10-20T04:53:29.395Z,8.40
2017-10-20T04:55:55.846Z,8.40
2017-10-20T04:58:22.286Z,8.40
2017-10-20T05:00:48.701Z,8.40
2017-10-20T05:03:15.105Z,8.40
2017-10-20T05:05:42.295Z,8.50
2017-10-20T05:08:08.743Z,8.50
2017-10-20T05:10:35.154Z,8.50
2017-10-20T05:13:01.622Z,8.60
2017-10-20T05:15:28.066Z,8.70
2017-10-20T05:17:55.210Z,8.60
2017-10-20T05:20:21.627Z,8.60
2017-10-20T05:22:48.045Z,8.60
2017-10-20T05:25:14.531Z,8.60
2017-10-20T05:27:41.854Z,8.80
2017-10-20T05:30:09.760Z,8.80
2017-10-20T05:32:36.926Z,8.80
2017-10-20T05:35:03.447Z,8.70
2017-10-20T05:37:30.024Z,8.80
2017-10-20T05:39:56.434Z,8.80
2017-10-20T05:42:22.854Z,8.80
2017-10-20T05:44:50.073Z,8.90
2017-10-20T05:47:18.001Z,8.90
2017-10-20T05:49:44.476Z,8.90
2017-10-20T05:52:10.932Z,9.00
2017-10-20T05:54:38.116Z,9.10
2017-10-20T05:57:05.352Z,9.10
2017-10-20T05:59:31.796Z,9.10
2017-10-20T06:01:58.232Z,9.10
2017-10-20T06:04:24.684Z,9.10
2017-10-20T06:06:51.118Z,9.10
2017-10-20T06:09:17.530Z,9.10
2017-10-20T06:11:44.030Z,9.10
2017-10-20T06:14:10.458Z,9.20
2017-10-20T06:16:38.366Z,9.40
2017-10-20T06:19:04.766Z,9.40
2017-10-20T06:21:31.947Z,9.50
2017-10-20T06:23:58.374Z,9.40
2017-10-20T06:26:24.794Z,9.50
2017-10-20T06:28:52.024Z,9.60
2017-10-20T06:31:32.562Z,9.50
2017-10-20T06:33:59.806Z,9.50
2017-10-20T06:36:26.303Z,9.50
2017-10-20T06:38:52.749Z,9.60
2017-10-20T06:41:19.233Z,9.70
2017-10-20T06:43:45.654Z,9.80
2017-10-20T06:46:12.054Z,9.90
2017-10-20T06:48:38.535Z,10.00
2017-10-20T06:51:04.978Z,9.90
2017-10-20T06:53:31.436Z,10.00
2017-10-20T06:55:58.633Z,10.10
2017-10-20T06:58:25.097Z,10.00
2017-10-20T07:00:51.630Z,10.10
2017-10-20T07:03:18.108Z,10.10
2017-10-20T07:05:44.593Z,10.20
2017-10-20T07:08:11.103Z,10.20
2017-10-20T07:10:37.578Z,10.20
2017-10-20T07:13:04.027Z,10.20
2017-10-20T07:15:30.532Z,10.20
2017-10-20T07:17:57.740Z,10.10
2017-10-20T07:20:36.027Z,10.10
2017-10-20T07:23:02.523Z,10.20
2017-10-20T07:25:28.964Z,10.20
2017-10-20T07:27:56.088Z,10.20
2017-10-20T07:30:22.573Z,10.20
2017-10-20T07:32:49.108Z,10.20
2017-10-20T07:35:15.524Z,10.20
2017-10-20T07:37:42.750Z,10.40
2017-10-20T07:40:10.017Z,10.50
2017-10-20T07:42:37.355Z,10.50
2017-10-20T07:45:04.064Z,10.50
2017-10-20T07:47:30.461Z,10.50
2017-10-20T07:49:57.621Z,10.60
2017-10-20T07:52:24.058Z,10.60
2017-10-20T07:54:50.459Z,10.60
2017-10-20T07:57:16.888Z,10.80
2017-10-20T07:59:43.373Z,10.80
2017-10-20T08:02:09.786Z,10.80
2017-10-20T08:04:36.969Z,10.80
2017-10-20T08:07:03.380Z,10.80
2017-10-20T08:09:29.796Z,10.90
2017-10-20T08:11:56.947Z,11.10
2017-10-20T08:14:23.444Z,11.10
2017-10-20T08:16:49.916Z,11.10
2017-10-20T08:19:16.350Z,11.10
2017-10-20T08:21:42.778Z,11.20
2017-10-20T08:24:09.905Z,11.30
2017-10-20T08:26:37.062Z,11.50
2017-10-20T08:29:03.521Z,11.50
2017-10-20T08:31:30.001Z,11.80
2017-10-20T08:33:56.456Z,12.00
2017-10-20T08:36:23.613Z,12.10
2017-10-20T08:38:50.869Z,12.20
2017-10-20T08:41:17.343Z,12.20
2017-10-20T08:43:43.798Z,12.20
2017-10-20T08:46:10.395Z,12.20
2017-10-20T08:48:36.830Z,12.30
2017-10-20T08:51:03.265Z,12.20
2017-10-20T08:53:29.776Z,12.40
2017-10-20T08:55:56.284Z,12.40
2017-10-20T08:58:22.805Z,12.20
2017-10-20T09:00:49.246Z,12.50
2017-10-20T09:03:15.629Z,12.70
2017-10-20T09:05:42.937Z,12.70
2017-10-20T09:08:10.127Z,12.80
2017-10-20T09:10:37.243Z,13.00
2017-10-20T09:13:04.395Z,13.00
2017-10-20T09:15:30.780Z,13.00
2017-10-20T09:17:57.354Z,13.10
2017-10-20T09:20:23.778Z,13.00
2017-10-20T09:22:50.169Z,13.20
2017-10-20T09:25:16.605Z,13.20
2017-10-20T09:27:43.107Z,13.30
2017-10-20T09:30:09.652Z,13.40
2017-10-20T09:32:36.118Z,13.40
2017-10-20T09:35:02.634Z,13.70
2017-10-20T09:37:29.058Z,13.90
2017-10-20T09:39:56.221Z,14.40
2017-10-20T09:42:22.615Z,14.40
2017-10-20T09:44:49.111Z,14.50
2017-10-20T09:47:15.558Z,14.50
2017-10-20T09:49:41.964Z,14.50
2017-10-20T09:52:08.475Z,14.40
2017-10-20T09:54:35.654Z,14.60
2017-10-20T09:57:02.072Z,14.50
2017-10-20T09:59:28.468Z,14.70
2017-10-20T10:01:54.936Z,15.00
2017-10-20T10:04:21.379Z,15.10
2017-10-20T10:06:47.824Z,14.90
2017-10-20T10:09:14.269Z,15.00
2017-10-20T10:11:40.727Z,15.10
2017-10-20T10:14:07.165Z,15.30
2017-10-20T10:16:33.581Z,15.40
2017-10-20T10:19:00.004Z,15.40
2017-10-20T10:21:26.412Z,15.40
2017-10-20T10:23:52.815Z,15.50
2017-10-20T10:26:19.945Z,15.60
2017-10-20T10:28:46.348Z,15.60
2017-10-20T10:31:12.778Z,15.30
2017-10-20T10:33:39.166Z,15.20
2017-10-20T10:36:06.630Z,14.70
2017-10-20T10:38:33.761Z,14.50
2017-10-20T10:41:00.147Z,14.50
2017-10-20T10:43:26.560Z,14.50
2017-10-20T10:45:53.001Z,14.90
2017-10-20T10:48:19.420Z,15.20
2017-10-20T10:50:45.855Z,15.40
2017-10-20T10:53:12.268Z,15.70
2017-10-20T10:55:39.405Z,15.80
2017-10-20T10:58:05.821Z,15.70
2017-10-20T11:00:32.235Z,15.70
2017-10-20T11:02:58.693Z,15.80
2017-10-20T11:05:37.301Z,16.00
2017-10-20T11:08:16.010Z,16.10
2017-10-20T11:10:54.776Z,16.40
2017-10-20T11:13:21.983Z,16.90
2017-10-20T11:15:48.448Z,16.90
2017-10-20T11:18:15.608Z,17.60
2017-10-20T11:20:42.755Z,17.60
2017-10-20T11:23:09.166Z,17.60
2017-10-20T11:25:35.598Z,17.50
2017-10-20T11:28:02.018Z,17.10
2017-10-20T11:30:28.632Z,17.00
2017-10-20T11:32:55.086Z,16.70
2017-10-20T11:35:21.523Z,16.50
2017-10-20T11:37:48.052Z,16.50
2017-10-20T11:40:14.481Z,16.60
2017-10-20T11:42:40.945Z,16.70
2017-10-20T11:45:07.385Z,16.70
2017-10-20T11:47:33.850Z,16.70
2017-10-20T11:50:00.274Z,16.80
2017-10-20T11:52:27.465Z,16.90
2017-10-20T11:54:54.138Z,16.90
2017-10-20T11:57:20.539Z,16.90
2017-10-20T11:59:46.961Z,17.10
2017-10-20T12:02:13.770Z,17.20
2017-10-20T12:04:40.934Z,17.50
2017-10-20T12:07:07.337Z,17.50
2017-10-20T12:09:33.826Z,17.50
2017-10-20T12:12:00.343Z,17.60
2017-10-20T12:14:26.797Z,17.60
2017-10-20T12:16:53.323Z,17.70
2017-10-20T12:19:19.800Z,17.80
2017-10-20T12:21:46.205Z,17.90
2017-10-20T12:24:12.586Z,17.90
2017-10-20T12:26:39.737Z,18.10
2017-10-20T12:29:06.861Z,18.00
2017-10-20T12:31:33.265Z,18.00
2017-10-20T12:33:59.690Z,18.20
2017-10-20T12:36:26.103Z,18.40
2017-10-20T12:38:52.527Z,18.50
2017-10-20T12:41:19.655Z,18.10
2017-10-20T12:43:46.045Z,18.20
2017-10-20T12:46:12.423Z,18.00
2017-10-20T12:48:38.833Z,18.20
2017-10-20T12:51:05.240Z,18.50
2017-10-20T12:53:31.638Z,18.60
2017-10-20T12:55:58.779Z,18.40
2017-10-20T12:58:25.910Z,18.20
2017-10-20T13:00:52.329Z,18.10
2017-10-20T13:03:18.739Z,18.20
2017-10-20T13:05:45.197Z,18.10
2017-10-20T13:08:11.654Z,18.20
2017-10-20T13:10:38.830Z,18.20
2017-10-20T13:13:05.252Z,18.10
2017-10-20T13:15:32.457Z,18.80
2017-10-20T13:17:58.950Z,18.80
2017-10-20T13:20:25.409Z,19.00
2017-10-20T13:22:51.792Z,18.70
2017-10-20T13:25:18.939Z,18.30
2017-10-20T13:27:46.405Z,18.50
2017-10-20T13:30:13.575Z,18.40
2017-10-20T13:32:40.006Z,18.40
2017-10-20T13:35:06.397Z,18.30
2017-10-20T13:37:32.792Z,18.40
2017-10-20T13:39:59.203Z,18.40
2017-10-20T13:42:25.638Z,18.20
2017-10-20T13:44:52.024Z,18.30
2017-10-20T13:47:18.428Z,18.30
2017-10-20T13:49:44.789Z,18.20
2017-10-20T13:52:11.164Z,18.20
2017-10-20T13:54:37.576Z,18.10
2017-10-20T13:57:04.762Z,18.20
2017-10-20T13:59:31.144Z,18.20
2017-10-20T14:01:58.292Z,18.30
2017-10-20T14:04:24.692Z,18.20
2017-10-20T14:06:51.081Z,18.20
2017-10-20T14:09:18.241Z,18.30
2017-10-20T14:11:44.718Z,18.30
2017-10-20T14:14:11.111Z,18.30
2017-10-20T14:16:37.527Z,18.40
2017-10-20T14:19:03.954Z,18.40
2017-10-20T14:21:31.196Z,18.30
2017-10-20T14:23:58.340Z,18.10
2017-10-20T14:26:38.468Z,18.10
2017-10-20T14:29:17.873Z,18.00
2017-10-20T14:31:57.306Z,18.20
2017-10-20T14:34:23.705Z,18.30
2017-10-20T14:36:50.840Z,18.10
2017-10-20T14:39:17.248Z,18.10
2017-10-20T14:41:43.740Z,18.30
2017-10-20T14:44:10.911Z,18.10
2017-10-20T14:46:37.325Z,18.10
2017-10-20T14:49:04.469Z,18.10
2017-10-20T14:51:31.607Z,18.10
2017-10-20T14:53:58.037Z,18.10
2017-10-20T14:56:24.437Z,18.10
2017-10-20T14:58:50.830Z,18.20
2017-10-20T15:01:17.979Z,18.20
2017-10-20T15:03:44.430Z,18.20
2017-10-20T15:06:10.857Z,18.00
2017-10-20T15:08:37.244Z,17.90
2017-10-20T15:11:03.650Z,17.70
2017-10-20T15:13:30.081Z,17.80
2017-10-20T15:15:56.477Z,17.70
2017-10-20T15:18:23.672Z,17.60
2017-10-20T15:20:50.050Z,17.60
2017-10-20T15:23:17.168Z,17.50
2017-10-20T15:25:43.648Z,17.50
2017-10-20T15:28:10.064Z,17.40
2017-10-20T15:30:37.237Z,17.20
2017-10-20T15:33:03.681Z,17.20
2017-10-20T15:35:30.079Z,17.10
2017-10-20T15:37:56.476Z,17.00
2017-10-20T15:40:22.861Z,17.00
2017-10-20T15:42:49.266Z,16.70
2017-10-20T15:45:15.696Z,16.80
2017-10-20T15:47:42.830Z,17.00
2017-10-20T15:50:09.259Z,16.90
2017-10-20T15:52:35.715Z,16.90
2017-10-20T15:55:02.112Z,16.80
2017-10-20T15:57:28.495Z,16.60
2017-10-20T15:59:55.647Z,16.40
2017-10-20T16:02:22.787Z,16.20
2017-10-20T16:04:49.957Z,16.00
2017-10-20T16:07:16.398Z,16.00
2017-10-20T16:09:42.805Z,16.10
2017-10-20T16:12:09.962Z,15.90
2017-10-20T16:14:37.124Z,15.80
2017-10-20T16:17:03.512Z,15.80
2017-10-20T16:19:29.982Z,15.70
2017-10-20T16:21:57.145Z,15.70
2017-10-20T16:24:23.517Z,15.60
2017-10-20T16:26:49.908Z,15.60
2017-10-20T16:29:17.165Z,15.60
2017-10-20T16:31:43.532Z,15.50
2017-10-20T16:34:09.929Z,15.30
2017-10-20T16:36:36.298Z,15.30
2017-10-20T16:39:02.769Z,15.20
2017-10-20T16:41:29.225Z,14.90
2017-10-20T16:43:55.692Z,14.70
2017-10-20T16:46:22.086Z,14.40
2017-10-20T16:48:48.480Z,14.30
2017-10-20T16:51:14.860Z,14.10
2017-10-20T16:53:41.262Z,14.20
2017-10-20T16:56:08.404Z,14.10
2017-10-20T16:58:35.598Z,14.00
2017-10-20T17:01:02.021Z,14.00
2017-10-20T17:03:28.467Z,13.90
2017-10-20T17:05:54.914Z,13.50
2017-10-20T17:08:21.792Z,13.40
2017-10-20T17:10:48.159Z,13.30
2017-10-20T17:13:14.608Z,13.10
2017-10-20T17:15:40.997Z,13.00
2017-10-20T17:18:08.155Z,12.80
2017-10-20T17:20:35.340Z,12.70
2017-10-20T17:23:01.809Z,12.70
2017-10-20T17:25:28.224Z,12.70
2017-10-20T17:27:54.658Z,12.50
2017-10-20T17:30:21.078Z,12.50
2017-10-20T17:32:47.496Z,12.70
2017-10-20T17:35:13.925Z,12.50
2017-10-20T17:37:40.332Z,12.50
2017-10-20T17:40:06.745Z,12.50
2017-10-20T17:42:33.167Z,12.40
2017-10-20T17:44:59.634Z,12.40
2017-10-20T17:47:26.780Z,12.10
2017-10-20T17:49:53.946Z,12.10
2017-10-20T17:52:21.083Z,11.90
2017-10-20T17:54:48.232Z,11.90
2017-10-20T17:57:15.472Z,11.80
2017-10-20T17:59:42.656Z,11.80
2017-10-20T18:02:09.041Z,11.80
2017-10-20T18:04:35.472Z,11.90
2017-10-20T18:07:01.885Z,12.00
2017-10-20T18:09:28.269Z,12.00
2017-10-20T18:11:56.417Z,11.60
2017-10-20T18:14:22.841Z,11.60
2017-10-20T18:16:49.208Z,11.50
2017-10-20T18:19:15.616Z,11.60
2017-10-20T18:21:42.035Z,11.60
2017-10-20T18:24:09.944Z,11.60
2017-10-20T18:26:37.124Z,11.90
2017-10-20T18:29:04.290Z,11.90
2017-10-20T18:31:30.719Z,12.00
2017-10-20T18:33:57.177Z,12.10
2017-10-20T18:36:23.616Z,12.10
2017-10-20T18:38:50.059Z,12.20
2017-10-20T18:41:16.488Z,12.30
2017-10-20T18:43:42.893Z,12.30
2017-10-20T18:46:09.264Z,12.20
2017-10-20T18:48:36.476Z,12.10
2017-10-20T18:51:02.954Z,12.10
2017-10-20T18:53:29.396Z,12.20
2017-10-20T18:55:55.813Z,12.20
2017-10-20T18:58:22.973Z,12.20
2017-10-20T19:00:50.119Z,12.10
2017-10-20T19:03:17.273Z,12.00
2017-10-20T19:05:44.419Z,11.90
2017-10-20T19:08:11.594Z,12.10
2017-10-20T19:10:38.004Z,12.10
2017-10-20T19:13:05.178Z,12.30
2017-10-20T19:15:31.573Z,12.30
2017-10-20T19:17:58.789Z,12.40
2017-10-20T19:20:25.227Z,12.40
2017-10-20T19:22:52.557Z,12.40
2017-10-20T19:25:18.981Z,12.40
2017-10-20T19:27:45.435Z,12.20
2017-10-20T19:30:11.848Z,12.10
2017-10-20T19:32:38.246Z,12.00
2017-10-20T19:35:04.657Z,12.00
2017-10-20T19:37:31.043Z,11.90
2017-10-20T19:39:57.423Z,11.90
2017-10-20T19:42:23.825Z,11.90
2017-10-20T19:44:50.208Z,11.80
2017-10-20T19:47:17.452Z,11.90
2017-10-20T19:49:44.598Z,11.70
2017-10-20T19:52:11.767Z,11.60
2017-10-20T19:54:38.149Z,11.60
2017-10-20T19:57:04.558Z,11.80
2017-10-20T19:59:30.986Z,12.00
2017-10-20T20:01:57.385Z,11.90
2017-10-20T20:04:23.812Z,11.90
2017-10-20T20:06:50.965Z,11.80
2017-10-20T20:09:17.449Z,11.80
2017-10-20T20:11:43.897Z,11.70
2017-10-20T20:14:10.289Z,11.80
2017-10-20T20:16:36.698Z,11.80
2017-10-20T20:19:04.609Z,11.80
2017-10-20T20:21:31.041Z,11.80
2017-10-20T20:23:57.477Z,12.00
2017-10-20T20:26:23.908Z,12.00
2017-10-20T20:28:50.375Z,12.00
2017-10-20T20:31:18.791Z,11.90
2017-10-20T20:33:45.978Z,11.70
2017-10-20T20:36:12.486Z,11.60
2017-10-20T20:38:38.933Z,11.70
2017-10-20T20:41:05.359Z,11.80
2017-10-20T20:43:31.803Z,11.70
2017-10-20T20:45:58.241Z,11.70
2017-10-20T20:48:24.655Z,11.80
2017-10-20T20:50:51.828Z,11.80
2017-10-20T20:53:18.211Z,11.80
2017-10-20T20:55:44.601Z,11.80
2017-10-20T20:58:11.026Z,11.80
2017-10-20T21:00:37.443Z,11.80
2017-10-20T21:03:03.839Z,11.80
2017-10-20T21:05:31.004Z,11.70
2017-10-20T21:07:58.107Z,11.70
2017-10-20T21:10:24.536Z,11.70
2017-10-20T21:12:50.936Z,11.70
2017-10-20T21:15:17.412Z,11.70
2017-10-20T21:17:43.882Z,11.80
2017-10-20T21:20:10.289Z,11.60
2017-10-20T21:22:36.702Z,11.50
2017-10-20T21:25:03.135Z,11.60
2017-10-20T21:27:29.515Z,11.60
2017-10-20T21:29:56.668Z,11.70
2017-10-20T21:32:23.830Z,11.70
2017-10-20T21:34:50.952Z,11.60
2017-10-20T21:37:17.357Z,11.60
2017-10-20T21:39:43.781Z,11.60
2017-10-20T21:42:10.195Z,11.50
2017-10-20T21:44:36.676Z,11.40
2017-10-20T21:47:03.073Z,11.30
2017-10-20T21:49:29.528Z,11.40
2017-10-20T21:51:56.098Z,11.50
2017-10-20T21:54:23.233Z,11.60
2017-10-20T21:56:49.865Z,11.60
2017-10-20T21:59:16.278Z,11.50
2017-10-20T22:01:44.318Z,11.30
2017-10-20T22:04:10.725Z,11.30
2017-10-20T22:06:37.874Z,11.20
2017-10-20T22:09:04.311Z,11.20
2017-10-20T22:11:31.472Z,11.30
2017-10-20T22:13:57.901Z,11.30
2017-10-20T22:16:25.041Z,11.10
2017-10-20T22:18:52.205Z,11.20
2017-10-20T22:21:18.613Z,11.20
2017-10-20T22:23:45.787Z,11.30
2017-10-20T22:26:12.199Z,11.30
2017-10-20T22:28:38.638Z,11.40
2017-10-20T22:31:06.287Z,11.50
2017-10-20T22:33:32.746Z,11.40
2017-10-20T22:35:59.167Z,11.40
2017-10-20T22:38:25.580Z,11.30
2017-10-20T22:40:52.058Z,11.10
2017-10-20T22:43:18.497Z,11.00
2017-10-20T22:45:44.902Z,11.00
2017-10-20T22:48:12.060Z,11.20
2017-10-20T22:50:38.473Z,11.20
2017-10-20T22:53:05.676Z,11.30
2017-10-20T22:55:32.083Z,11.30
2017-10-20T22:57:59.265Z,11.30
2017-10-20T23:00:25.664Z,11.20
2017-10-20T23:02:52.073Z,11.20
2017-10-20T23:05:19.217Z,10.90
2017-10-20T23:07:46.378Z,10.90
2017-10-20T23:10:12.798Z,10.90
2017-10-20T23:12:39.996Z,10.90
2017-10-20T23:15:06.411Z,10.90
2017-10-20T23:17:32.855Z,10.80
2017-10-20T23:19:59.262Z,10.90
2017-10-20T23:22:26.429Z,11.00
2017-10-20T23:24:52.908Z,11.00
2017-10-20T23:27:19.290Z,10.90
2017-10-20T23:29:45.702Z,10.80
2017-10-20T23:32:12.906Z,10.90
2017-10-20T23:34:39.320Z,11.00
2017-10-20T23:37:05.717Z,10.80
2017-10-20T23:39:32.130Z,10.80
2017-10-20T23:42:00.020Z,10.60
2017-10-20T23:44:26.428Z,10.60
2017-10-20T23:46:52.819Z,10.70
2017-10-20T23:49:19.212Z,10.60
2017-10-20T23:51:45.613Z,10.50
2017-10-20T23:54:12.100Z,10.60
2017-10-20T23:56:38.493Z,10.60
2017-10-20T23:59:05.849Z,10.50
